Time;durP1;ratioP1;P1;durP2;ratioP2;P2;SDS_P1;SDS_P2;PMS_P1;PMS_P2;Temp;Humidity;BMP_temperature;BMP_pressure;BME280_temperature;BME280_humidity;BME280_pressure;Samples;Min_cycle;Max_cycle;Signal;HPM_P1;HPM_P2
2022/05/05 00:02:07;;;;;;;16.83;12.95;;;;;;;16.01;100.00;101419.16;4939669;29;20191;-78
2022/05/05 00:04:53;;;;;;;18.27;12.95;;;;;;;15.90;100.00;101425.66;4940146;29;20371;-78
2022/05/05 00:07:38;;;;;;;16.70;12.52;;;;;;;15.83;100.00;101427.59;4939415;29;20098;-76
2022/05/05 00:16:33;;;;;;;14.48;10.52;;;;;;;14.87;100.00;101442.41;4939851;29;20027;-77
2022/05/05 00:19:20;;;;;;;12.75;10.40;;;;;;;14.73;100.00;101446.25;4939055;29;20024;-77
2022/05/05 00:22:06;;;;;;;15.45;10.90;;;;;;;14.66;100.00;101443.75;4939253;29;20138;-77
2022/05/05 00:24:52;;;;;;;19.30;12.45;;;;;;;14.44;100.00;101455.69;4951811;29;20116;-77
2022/05/05 00:27:38;;;;;;;15.55;12.20;;;;;;;14.16;100.00;101462.41;4939491;29;20428;-77
2022/05/05 00:30:24;;;;;;;20.65;12.50;;;;;;;14.09;100.00;101461.66;4938836;29;20342;-76
2022/05/05 00:33:10;;;;;;;18.95;13.10;;;;;;;14.13;100.00;101468.63;4938408;29;20508;-77
2022/05/05 00:35:55;;;;;;;16.90;12.63;;;;;;;14.37;100.00;101470.78;4939166;29;20070;-78
2022/05/05 00:38:41;;;;;;;18.27;13.50;;;;;;;14.34;100.00;101467.31;4939418;29;20073;-76
2022/05/05 00:41:38;;;;;;;20.67;12.77;;;;;;;14.60;100.00;101459.75;4939210;29;20028;-77
2022/05/05 00:44:24;;;;;;;16.77;12.43;;;;;;;14.34;100.00;101457.66;4939378;29;20094;-76
2022/05/05 00:47:15;;;;;;;16.95;13.10;;;;;;;13.80;100.00;101461.38;4939028;29;20457;-77
2022/05/05 00:50:01;;;;;;;18.35;13.15;;;;;;;14.03;100.00;101463.56;4938806;29;20452;-76
2022/05/05 00:52:47;;;;;;;15.80;12.75;;;;;;;14.20;100.00;101459.66;4939386;29;20397;-77
2022/05/05 00:55:37;;;;;;;15.80;12.60;;;;;;;14.37;100.00;101462.88;4938555;29;20452;-77
2022/05/05 00:58:25;;;;;;;19.90;12.48;;;;;;;14.34;100.00;101462.03;4939050;29;20063;-77
2022/05/05 01:01:14;;;;;;;16.42;12.82;;;;;;;13.74;100.00;101463.22;4938349;29;20020;-76
2022/05/05 01:04:00;;;;;;;17.35;12.20;;;;;;;13.54;100.00;101457.44;4938493;29;20026;-76
2022/05/05 01:06:46;;;;;;;17.20;12.43;;;;;;;13.64;100.00;101459.03;4938312;29;20038;-78
2022/05/05 01:09:32;;;;;;;14.82;12.70;;;;;;;13.49;100.00;101462.81;4938986;29;20032;-76
2022/05/05 01:12:19;;;;;;;18.38;12.95;;;;;;;13.75;100.00;101462.34;4936604;29;20035;-77
2022/05/05 01:15:06;;;;;;;19.27;12.98;;;;;;;13.94;100.00;101458.44;4938068;29;20540;-77
2022/05/05 01:17:51;;;;;;;14.88;11.70;;;;;;;13.90;100.00;101459.41;4938954;29;20460;-76
2022/05/05 01:20:45;;;;;;;18.30;12.80;;;;;;;14.27;100.00;101456.03;4951827;28;20457;-77
2022/05/05 01:23:31;;;;;;;17.25;13.27;;;;;;;14.31;100.00;101454.22;4937930;29;20028;-77
2022/05/05 01:29:22;;;;;;;18.85;12.85;;;;;;;14.22;100.00;101446.47;4938141;29;20078;-76
2022/05/05 01:32:08;;;;;;;16.73;12.95;;;;;;;14.36;100.00;101457.63;4938291;29;20111;-76
2022/05/05 01:34:54;;;;;;;14.82;11.90;;;;;;;14.36;100.00;101461.09;4950672;29;20475;-77
2022/05/05 01:37:40;;;;;;;17.38;13.40;;;;;;;14.42;100.00;101455.72;4950424;29;20039;-77
2022/05/05 01:40:26;;;;;;;17.15;12.23;;;;;;;14.31;100.00;101468.25;4938008;29;20089;-77
2022/05/05 01:43:13;;;;;;;20.67;12.80;;;;;;;14.34;100.00;101465.56;4936711;29;20027;-76
2022/05/05 01:45:59;;;;;;;17.48;12.88;;;;;;;14.27;100.00;101458.69;4938029;29;20051;-77
2022/05/05 01:48:44;;;;;;;18.73;12.48;;;;;;;14.14;100.00;101454.53;4950334;29;20449;-76
2022/05/05 01:51:30;;;;;;;13.82;11.50;;;;;;;13.85;100.00;101464.78;4937921;29;20468;-77
2022/05/05 01:54:16;;;;;;;14.88;12.20;;;;;;;14.06;100.00;101459.09;4950107;28;20372;-77
2022/05/05 01:57:02;;;;;;;14.48;11.63;;;;;;;14.18;100.00;101463.22;4938137;29;20038;-77
2022/05/05 01:59:48;;;;;;;16.67;12.00;;;;;;;14.40;100.00;101468.06;4937584;29;20074;-76
2022/05/05 02:02:33;;;;;;;15.35;11.45;;;;;;;14.54;100.00;101476.56;4937655;29;20421;-77
2022/05/05 02:05:19;;;;;;;15.40;12.38;;;;;;;14.49;100.00;101478.44;4937618;29;20039;-77
2022/05/05 02:08:05;;;;;;;18.02;11.95;;;;;;;14.62;100.00;101476.38;4937544;29;20031;-76
2022/05/05 02:10:51;;;;;;;14.50;12.00;;;;;;;14.63;100.00;101489.53;4937454;29;20043;-77
2022/05/05 02:13:37;;;;;;;15.52;12.57;;;;;;;14.68;100.00;101490.28;4937224;29;20540;-77
2022/05/05 02:16:23;;;;;;;17.88;12.35;;;;;;;14.60;100.00;101492.22;4950858;29;20472;-76
2022/05/05 02:19:08;;;;;;;16.92;12.35;;;;;;;14.57;100.00;101489.69;4936701;29;20038;-76
2022/05/05 02:21:55;;;;;;;18.90;12.38;;;;;;;14.61;100.00;101487.84;4937325;29;20035;-77
2022/05/05 02:24:41;;;;;;;15.27;12.05;;;;;;;14.88;100.00;101492.50;4937170;29;20032;-77
2022/05/05 02:27:26;;;;;;;15.57;11.43;;;;;;;15.04;100.00;101495.66;4937736;29;20074;-77
2022/05/05 02:30:12;;;;;;;17.42;12.30;;;;;;;15.02;100.00;101492.19;4936516;29;20036;-76
2022/05/05 02:32:58;;;;;;;17.58;11.68;;;;;;;14.85;100.00;101497.84;4936236;29;20098;-76
2022/05/05 02:35:44;;;;;;;18.30;12.25;;;;;;;15.08;100.00;101500.84;4937121;29;20019;-76
2022/05/05 02:38:46;;;;;;;18.38;12.40;;;;;;;14.84;100.00;101509.31;4937169;29;20043;-76
2022/05/05 02:41:31;;;;;;;18.73;12.52;;;;;;;14.55;100.00;101509.09;4937083;29;20028;-77
2022/05/05 02:44:17;;;;;;;17.23;11.65;;;;;;;14.45;100.00;101511.03;4937131;29;20071;-77
2022/05/05 02:47:04;;;;;;;18.58;12.60;;;;;;;14.54;100.00;101509.97;4937489;29;20068;-77
2022/05/05 02:49:50;;;;;;;15.75;12.05;;;;;;;14.70;100.00;101508.72;4936964;29;20123;-76
2022/05/05 02:52:35;;;;;;;16.33;12.90;;;;;;;14.75;100.00;101505.09;4950845;28;20356;-77
2022/05/05 02:55:22;;;;;;;15.07;12.23;;;;;;;14.79;100.00;101512.03;4938706;29;20027;-76
2022/05/05 02:58:08;;;;;;;17.23;12.88;;;;;;;14.79;100.00;101512.03;4954017;29;20397;-76
2022/05/05 03:00:54;;;;;;;17.15;11.98;;;;;;;14.75;100.00;101515.66;4940635;29;20028;-77
2022/05/05 03:03:40;;;;;;;19.70;12.48;;;;;;;14.70;100.00;101517.53;4940756;29;20028;-77
2022/05/05 03:06:25;;;;;;;19.33;13.10;;;;;;;14.69;100.00;101528.09;4940414;29;20039;-77
2022/05/05 03:09:11;;;;;;;16.85;12.43;;;;;;;14.74;100.00;101524.47;4939125;29;20031;-76
2022/05/05 03:11:57;;;;;;;22.58;12.85;;;;;;;14.79;100.00;101527.88;4940085;29;20441;-76
2022/05/05 03:14:46;;;;;;;19.48;12.73;;;;;;;14.31;100.00;101523.63;4940272;29;20131;-76
2022/05/05 03:17:32;;;;;;;23.30;13.07;;;;;;;13.96;100.00;101528.69;4940281;29;20027;-78
2022/05/05 03:20:17;;;;;;;18.40;12.45;;;;;;;13.78;100.00;101539.53;4939642;29;20036;-77
2022/05/05 03:23:03;;;;;;;18.08;13.32;;;;;;;13.77;100.00;101537.81;4952338;29;20421;-78
2022/05/05 03:25:49;;;;;;;17.23;13.00;;;;;;;13.68;100.00;101540.59;4952666;29;20091;-77
2022/05/05 03:28:41;;;;;;;20.30;13.77;;;;;;;13.69;100.00;101547.59;4939644;29;20350;-76
2022/05/05 03:31:27;;;;;;;20.33;13.60;;;;;;;13.88;100.00;101548.16;4940002;29;20030;-79
2022/05/05 03:34:13;;;;;;;17.83;13.65;;;;;;;13.91;100.00;101554.22;4940053;29;20027;-76
2022/05/05 03:36:59;;;;;;;19.77;14.55;;;;;;;13.83;100.00;101561.38;4951293;29;20095;-77
2022/05/05 03:39:44;;;;;;;22.13;14.88;;;;;;;13.88;100.00;101563.94;4952762;29;20369;-77
2022/05/05 03:42:30;;;;;;;23.83;17.13;;;;;;;13.70;100.00;101569.50;4953463;28;20047;-78
2022/05/05 03:45:16;;;;;;;45.92;30.98;;;;;;;13.57;100.00;101568.88;4940465;29;20024;-76
2022/05/05 03:48:01;;;;;;;26.15;17.42;;;;;;;13.75;100.00;101568.53;4940036;29;20516;-77
2022/05/05 03:50:47;;;;;;;29.77;16.80;;;;;;;14.07;100.00;101574.13;4940372;29;20119;-78
2022/05/05 03:53:33;;;;;;;169.80;82.22;;;;;;;14.21;100.00;101587.09;4939539;29;20036;-77
2022/05/05 03:56:19;;;;;;;29.33;19.67;;;;;;;14.01;100.00;101589.19;4940221;29;20480;-77
2022/05/05 03:59:06;;;;;;;25.92;18.23;;;;;;;14.08;100.00;101596.97;4939644;29;20031;-78
2022/05/05 04:01:51;;;;;;;29.55;16.67;;;;;;;14.15;100.00;101593.31;4939604;29;20094;-77
2022/05/05 04:04:37;;;;;;;103.15;53.78;;;;;;;14.08;100.00;101593.44;4939378;29;20055;-77
2022/05/05 04:07:23;;;;;;;29.33;19.15;;;;;;;14.05;100.00;101599.66;4942140;29;20032;-76
2022/05/05 04:10:09;;;;;;;22.05;15.85;;;;;;;14.36;100.00;101608.75;4949370;29;20376;-78
2022/05/05 04:12:55;;;;;;;32.70;19.20;;;;;;;14.28;100.00;101602.75;4947880;29;20027;-76
2022/05/05 04:15:41;;;;;;;31.45;19.55;;;;;;;14.31;100.00;101605.34;4943716;29;20027;-76
2022/05/05 04:18:27;;;;;;;32.20;20.60;;;;;;;14.38;100.00;101603.44;4954523;29;20035;-77
2022/05/05 04:21:13;;;;;;;35.28;22.15;;;;;;;14.60;100.00;101602.16;4942960;29;20031;-78
2022/05/05 04:23:59;;;;;;;27.75;19.52;;;;;;;14.46;100.00;101605.06;4938780;29;20520;-78
2022/05/05 04:26:46;;;;;;;22.75;16.02;;;;;;;14.54;100.00;101615.44;4953322;28;20035;-77
2022/05/05 04:29:31;;;;;;;20.05;13.95;;;;;;;14.55;100.00;101615.41;4939030;29;20091;-77
2022/05/05 04:32:17;;;;;;;18.98;12.85;;;;;;;14.24;100.00;101610.75;4939631;29;20106;-77
2022/05/05 04:35:03;;;;;;;19.02;13.48;;;;;;;14.50;100.00;101611.13;4939720;29;20020;-78
2022/05/05 04:37:49;;;;;;;14.68;12.35;;;;;;;14.62;100.00;101619.69;4939069;29;20428;-77
2022/05/05 04:40:35;;;;;;;16.80;12.70;;;;;;;14.30;100.00;101618.53;4937408;29;20404;-77
2022/05/05 04:43:21;;;;;;;19.92;13.38;;;;;;;14.42;100.00;101620.94;4938941;29;20063;-77
2022/05/05 04:46:07;;;;;;;18.42;12.60;;;;;;;14.79;100.00;101621.97;4939225;29;20414;-77
2022/05/05 04:48:53;;;;;;;16.73;12.43;;;;;;;14.53;100.00;101619.00;4938756;29;20035;-77
2022/05/05 04:51:39;;;;;;;18.05;12.35;;;;;;;14.32;100.00;101622.03;4937508;29;20421;-76
2022/05/05 04:54:25;;;;;;;16.77;13.65;;;;;;;14.22;100.00;101628.34;4941103;29;20023;-77
2022/05/05 04:57:10;;;;;;;85.10;51.75;;;;;;;13.99;100.00;101625.25;4939154;29;20038;-76
2022/05/05 04:59:58;;;;;;;28.63;21.23;;;;;;;14.35;100.00;101633.38;4951540;29;20171;-77
2022/05/05 05:02:47;;;;;;;16.75;12.88;;;;;;;14.52;100.00;101628.66;4951396;29;20020;-76
2022/05/05 05:05:34;;;;;;;24.42;13.15;;;;;;;14.84;100.00;101638.59;4950399;29;20076;-76
2022/05/05 05:08:20;;;;;;;21.08;12.82;;;;;;;14.77;100.00;101640.50;4936704;29;20110;-76
2022/05/05 05:11:06;;;;;;;17.92;13.52;;;;;;;14.83;100.00;101635.06;4951258;29;20034;-76
2022/05/05 05:13:52;;;;;;;16.85;13.40;;;;;;;14.31;100.00;101639.59;4937949;29;20086;-78
2022/05/05 05:16:37;;;;;;;24.90;17.38;;;;;;;14.51;100.00;101642.75;4938843;29;20110;-77
2022/05/05 05:19:25;;;;;;;17.48;13.10;;;;;;;14.75;100.00;101638.75;4951097;28;20114;-76
2022/05/05 05:22:11;;;;;;;16.15;13.52;;;;;;;14.64;100.00;101644.25;4938241;29;20039;-75
2022/05/05 05:24:57;;;;;;;17.85;13.63;;;;;;;14.72;100.00;101646.75;4939031;29;20040;-76
2022/05/05 05:27:44;;;;;;;21.50;13.27;;;;;;;14.81;100.00;101657.13;4938153;29;20056;-78
2022/05/05 05:30:29;;;;;;;18.73;14.90;;;;;;;15.25;100.00;101659.72;4938068;29;20032;-77
2022/05/05 05:33:15;;;;;;;21.00;15.30;;;;;;;15.22;100.00;101662.41;4938273;29;20109;-76
2022/05/05 05:36:01;;;;;;;24.42;16.02;;;;;;;15.32;100.00;101671.00;4937912;29;20042;-76
2022/05/05 05:38:47;;;;;;;19.33;15.02;;;;;;;15.44;100.00;101670.78;4937187;29;20087;-76
2022/05/05 05:41:32;;;;;;;20.42;15.07;;;;;;;15.76;100.00;101687.66;4937911;29;20082;-77
2022/05/05 05:44:18;;;;;;;19.25;14.50;;;;;;;15.98;100.00;101678.28;4951502;28;20086;-76
2022/05/05 05:47:04;;;;;;;19.90;14.52;;;;;;;16.34;100.00;101684.41;4938037;29;20027;-77
2022/05/05 05:49:50;;;;;;;22.83;14.27;;;;;;;16.64;100.00;101683.66;4937717;29;20034;-77
2022/05/05 05:52:36;;;;;;;20.25;15.00;;;;;;;16.64;100.00;101681.03;4937451;29;20157;-76
2022/05/05 05:55:22;;;;;;;20.48;14.00;;;;;;;16.76;100.00;101685.97;4937339;29;20027;-76
2022/05/05 05:58:07;;;;;;;22.70;15.45;;;;;;;16.91;100.00;101677.59;4937227;29;20032;-77
2022/05/05 06:00:53;;;;;;;24.00;16.35;;;;;;;16.84;100.00;101682.19;4935968;29;20505;-76
2022/05/05 06:03:54;;;;;;;21.02;15.85;;;;;;;16.93;100.00;101689.03;4950973;28;20453;-76
2022/05/05 06:06:41;;;;;;;19.58;15.23;;;;;;;17.06;100.00;101688.66;4949848;29;20028;-76
2022/05/05 06:09:27;;;;;;;23.60;14.98;;;;;;;17.58;100.00;101693.28;4937853;29;20043;-77
2022/05/05 06:12:12;;;;;;;21.40;15.88;;;;;;;17.61;100.00;101698.50;4937311;29;20027;-77
2022/05/05 06:14:58;;;;;;;22.95;16.95;;;;;;;17.31;100.00;101688.78;4928738;29;20131;-76
2022/05/05 06:17:44;;;;;;;20.13;15.35;;;;;;;17.71;100.00;101695.53;4908787;29;20451;-76
2022/05/05 06:20:32;;;;;;;21.35;16.70;;;;;;;17.57;100.00;101703.00;4909532;29;20154;-75
2022/05/05 06:23:18;;;;;;;27.48;15.60;;;;;;;17.31;100.00;101702.91;4911715;29;20115;-76
2022/05/05 06:26:05;;;;;;;20.30;15.73;;;;;;;17.70;100.00;101708.81;4910773;29;20086;-76
2022/05/05 06:28:51;;;;;;;21.75;15.98;;;;;;;17.41;100.00;101707.03;4908079;29;20032;-76
2022/05/05 06:31:36;;;;;;;21.90;14.55;;;;;;;17.38;100.00;101716.84;4910260;29;20059;-77
2022/05/05 06:34:22;;;;;;;20.90;13.52;;;;;;;17.98;100.00;101717.63;4909524;29;20028;-77
2022/05/05 06:37:08;;;;;;;18.73;14.23;;;;;;;18.22;100.00;101714.19;4922978;29;20036;-77
2022/05/05 06:39:54;;;;;;;20.52;14.90;;;;;;;18.38;100.00;101715.47;4909567;29;20040;-78
2022/05/05 06:42:41;;;;;;;48.25;31.58;;;;;;;19.21;100.00;101719.53;4922483;29;20531;-76
2022/05/05 06:45:27;;;;;;;17.98;14.27;;;;;;;18.78;100.00;101721.97;4909758;29;20055;-69
2022/05/05 06:48:13;;;;;;;22.30;13.80;;;;;;;19.29;100.00;101726.38;4908653;29;20032;-76
2022/05/05 06:50:59;;;;;;;19.40;11.65;;;;;;;18.26;100.00;101724.66;4910021;29;20068;-77
2022/05/05 06:53:45;;;;;;;16.67;10.70;;;;;;;18.39;100.00;101733.09;4908584;29;20397;-78
2022/05/05 06:56:31;;;;;;;13.85;10.32;;;;;;;18.30;100.00;101730.72;4909574;29;21235;-76
2022/05/05 06:59:16;;;;;;;14.38;11.18;;;;;;;17.69;100.00;101734.44;4920157;29;20032;-76
2022/05/05 07:02:02;;;;;;;18.95;10.45;;;;;;;18.21;100.00;101739.84;4921330;29;20040;-78
2022/05/05 07:07:53;;;;;;;19.52;10.63;;;;;;;18.43;100.00;101734.75;4906759;29;20039;-76
2022/05/05 07:10:54;;;;;;;20.52;10.98;;;;;;;18.85;100.00;101738.59;4910381;29;20047;-75
2022/05/05 07:13:40;;;;;;;18.02;10.98;;;;;;;18.56;100.00;101730.75;4922570;29;20600;-76
2022/05/05 07:16:26;;;;;;;18.50;11.20;;;;;;;18.71;100.00;101732.88;4909450;29;20039;-76
2022/05/05 07:19:12;;;;;;;19.48;11.15;;;;;;;19.15;100.00;101726.84;4917659;29;20027;-77
2022/05/05 07:21:57;;;;;;;19.67;10.93;;;;;;;18.80;100.00;101730.78;4923515;29;20412;-77
2022/05/05 07:24:46;;;;;;;15.80;10.32;;;;;;;18.80;100.00;101729.91;4910557;29;20028;-76
2022/05/05 07:27:34;;;;;;;12.80;9.82;;;;;;;18.77;100.00;101738.84;4908325;29;20039;-76
2022/05/05 07:30:20;;;;;;;19.27;12.45;;;;;;;18.70;100.00;101736.47;4918884;29;20477;-77
2022/05/05 07:33:07;;;;;;;14.23;10.98;;;;;;;18.97;100.00;101744.31;4923825;29;20032;-76
2022/05/05 07:35:53;;;;;;;18.65;10.45;;;;;;;18.49;100.00;101751.31;4909306;29;20488;-76
2022/05/05 07:38:39;;;;;;;15.10;10.20;;;;;;;18.72;100.00;101750.53;4911277;29;20040;-76
2022/05/05 07:41:25;;;;;;;17.15;10.55;;;;;;;18.83;100.00;101753.69;4912164;29;20114;-77
2022/05/05 07:44:11;;;;;;;15.52;9.77;;;;;;;19.74;100.00;101748.56;4912783;29;20044;-76
2022/05/05 07:46:57;;;;;;;17.27;9.85;;;;;;;19.87;94.81;101752.47;4919279;29;20028;-76
2022/05/05 07:49:42;;;;;;;18.42;9.48;;;;;;;20.43;92.43;101748.41;4910926;29;20056;-77
2022/05/05 07:52:28;;;;;;;11.93;8.05;;;;;;;20.10;87.54;101757.78;4925073;29;20379;-76
2022/05/05 07:55:14;;;;;;;11.93;7.38;;;;;;;20.43;80.96;101762.59;4912392;29;20024;-77
2022/05/05 07:58:03;;;;;;;14.82;8.35;;;;;;;20.41;81.17;101758.28;4907566;29;20146;-77
2022/05/05 08:00:48;;;;;;;14.05;7.32;;;;;;;20.60;77.05;101760.09;4911897;29;20465;-77
2022/05/05 08:03:34;;;;;;;14.00;7.88;;;;;;;20.40;78.27;101757.41;4912750;29;20032;-77
2022/05/05 08:06:20;;;;;;;17.10;7.60;;;;;;;20.61;78.55;101767.16;4911201;29;20032;-76
2022/05/05 08:09:06;;;;;;;16.45;7.40;;;;;;;20.81;77.19;101774.31;4908735;29;20065;-76
2022/05/05 08:11:52;;;;;;;13.50;7.45;;;;;;;20.02;78.36;101768.72;4915821;29;20028;-76
2022/05/05 08:14:38;;;;;;;14.93;7.55;;;;;;;20.36;79.00;101771.78;4916275;29;20494;-77
2022/05/05 08:17:23;;;;;;;11.45;7.20;;;;;;;20.76;77.23;101781.63;4909398;29;20028;-77
2022/05/05 08:20:10;;;;;;;12.38;6.90;;;;;;;19.94;77.72;101773.47;4925678;29;20062;-78
2022/05/05 08:22:56;;;;;;;8.88;6.60;;;;;;;20.35;75.77;101769.16;4910514;29;20068;-77
2022/05/05 08:28:50;;;;;;;10.38;6.30;;;;;;;21.65;61.78;101782.06;4907277;29;20032;-77
2022/05/05 08:31:35;;;;;;;7.88;5.70;;;;;;;20.26;66.59;101775.75;4912217;29;20028;-76
2022/05/05 08:34:21;;;;;;;11.38;6.28;;;;;;;21.35;65.65;101767.47;4910178;29;20032;-76
2022/05/05 08:37:10;;;;;;;8.05;4.90;;;;;;;21.06;59.41;101783.00;4925323;29;20043;-77
2022/05/05 08:39:56;;;;;;;6.35;5.25;;;;;;;21.67;59.93;101776.66;4911997;29;20047;-77
2022/05/05 08:42:41;;;;;;;11.15;5.20;;;;;;;21.84;58.85;101785.63;4925283;29;20470;-76
2022/05/05 08:45:30;;;;;;;13.60;5.22;;;;;;;21.66;59.31;101782.94;4911622;29;20036;-77
2022/05/05 08:48:20;;;;;;;8.02;4.88;;;;;;;22.31;56.92;101789.53;4908883;29;20028;-77
2022/05/05 08:51:06;;;;;;;8.13;5.25;;;;;;;22.61;56.25;101779.19;4912025;29;20461;-77
2022/05/05 08:53:57;;;;;;;14.27;7.30;;;;;;;22.37;54.14;101791.06;4911688;29;20040;-78
2022/05/05 08:56:54;;;;;;;40.65;27.90;;;;;;;22.02;52.92;101781.22;4913085;29;20059;-78
2022/05/05 08:59:39;;;;;;;12.02;7.22;;;;;;;22.42;51.49;101787.22;4908579;29;20080;-76
2022/05/05 09:02:25;;;;;;;9.63;4.28;;;;;;;22.08;50.44;101788.94;4912700;29;20565;-76
2022/05/05 09:05:12;;;;;;;7.90;4.80;;;;;;;22.60;51.31;101786.34;4912854;29;20075;-78
2022/05/05 09:07:58;;;;;;;9.43;3.80;;;;;;;22.82;48.69;101781.63;4919649;29;20447;-77
2022/05/05 09:10:50;;;;;;;6.95;3.60;;;;;;;21.92;49.92;101774.59;4925350;29;20032;-77
2022/05/05 09:13:37;;;;;;;10.85;3.63;;;;;;;22.52;50.27;101767.19;4924899;29;20604;-77
2022/05/05 09:16:26;;;;;;;8.60;3.95;;;;;;;22.91;49.32;101781.16;4923173;29;20032;-76
2022/05/05 09:19:11;;;;;;;5.82;3.55;;;;;;;23.46;49.40;101779.16;4912445;29;20040;-77
2022/05/05 09:21:58;;;;;;;7.22;3.75;;;;;;;23.21;49.77;101770.72;4910361;29;20080;-76
2022/05/05 09:24:51;;;;;;;6.57;3.92;;;;;;;23.57;47.67;101771.41;4908691;29;20484;-78
2022/05/05 09:27:37;;;;;;;6.47;3.90;;;;;;;23.95;46.03;101772.03;4918183;29;20050;-76
2022/05/05 09:30:22;;;;;;;5.03;3.50;;;;;;;23.95;45.23;101761.31;4909785;29;20436;-77
2022/05/05 09:33:11;;;;;;;5.32;2.97;;;;;;;22.89;45.02;101768.81;4912125;29;20860;-77
2022/05/05 09:35:57;;;;;;;7.25;3.25;;;;;;;23.11;44.98;101767.63;4910248;29;20038;-75
2022/05/05 09:39:05;;;;;;;4.95;2.85;;;;;;;22.44;44.43;101769.31;4906820;29;20472;-77
2022/05/05 09:41:54;;;;;;;4.47;2.92;;;;;;;22.32;43.78;101764.59;4924030;29;20378;-77
2022/05/05 09:44:45;;;;;;;7.00;2.78;;;;;;;22.24;42.88;101771.25;4911324;29;20618;-76
2022/05/05 09:47:32;;;;;;;6.72;2.70;;;;;;;22.09;42.12;101769.31;4908293;29;20040;-76
2022/05/05 09:50:20;;;;;;;13.45;3.58;;;;;;;22.44;40.86;101769.31;4909588;29;20051;-76
2022/05/05 09:59:25;;;;;;;5.57;2.78;;;;;;;21.90;38.91;101769.31;4904650;29;20457;-77
2022/05/05 10:02:16;;;;;;;15.52;6.15;;;;;;;22.17;37.93;101767.13;4911792;29;20044;-76
2022/05/05 10:05:02;;;;;;;14.45;6.00;;;;;;;21.70;38.55;101774.72;4908938;29;20059;-79
2022/05/05 10:07:49;;;;;;;5.90;2.60;;;;;;;22.40;38.36;101772.22;4907059;29;20032;-76
2022/05/05 10:10:37;;;;;;;21.50;9.20;;;;;;;22.03;37.72;101767.78;4912403;29;20047;-75
2022/05/05 10:13:24;;;;;;;7.38;3.40;;;;;;;22.40;38.21;101769.53;4909424;29;20048;-77
2022/05/05 10:16:09;;;;;;;11.45;4.75;;;;;;;21.87;37.94;101756.13;4912710;29;20036;-77
2022/05/05 10:18:56;;;;;;;5.25;2.70;;;;;;;22.98;37.69;101763.88;4904354;29;20032;-76
2022/05/05 10:21:54;;;;;;;44.42;18.45;;;;;;;22.52;38.20;101763.63;4912343;29;20040;-77
2022/05/05 10:24:50;;;;;;;15.45;6.40;;;;;;;22.32;37.84;101761.03;4911115;29;20044;-75
2022/05/05 10:27:44;;;;;;;6.80;2.75;;;;;;;22.67;37.61;101769.06;4905672;29;20675;-76
2022/05/05 10:30:34;;;;;;;4.97;2.35;;;;;;;22.66;38.15;101761.97;4909455;29;20067;-76
2022/05/05 10:33:57;;;;;;;4.25;2.20;;;;;;;23.16;37.72;101764.72;4909243;29;20111;-76
2022/05/05 10:37:03;;;;;;;6.07;2.35;;;;;;;22.55;37.34;101761.66;4909341;29;20035;-77
2022/05/05 10:39:48;;;;;;;5.47;2.45;;;;;;;22.46;37.82;101755.88;4908922;29;20032;-76
2022/05/05 10:42:45;;;;;;;2.80;2.00;;;;;;;22.27;37.40;101765.75;4910737;29;20036;-76
2022/05/05 10:45:31;;;;;;;4.32;2.20;;;;;;;22.52;37.26;101761.84;4917845;29;20036;-76
2022/05/05 10:48:34;;;;;;;5.30;2.30;;;;;;;23.43;37.63;101763.28;4915547;29;20028;-76
2022/05/05 10:51:20;;;;;;;6.97;1.88;;;;;;;22.63;37.58;101764.81;4909860;29;20055;-76
2022/05/05 10:54:22;;;;;;;4.43;2.53;;;;;;;22.79;37.16;101770.25;4910186;29;20456;-76
2022/05/05 10:57:26;;;;;;;6.72;2.30;;;;;;;22.33;37.76;101760.09;4913885;29;20659;-77
2022/05/05 11:00:13;;;;;;;5.57;2.53;;;;;;;22.15;38.35;101777.88;4910594;29;20051;-76
2022/05/05 11:03:01;;;;;;;4.68;2.25;;;;;;;21.89;38.37;101764.94;4910080;29;20029;-76
2022/05/05 11:05:47;;;;;;;4.07;2.30;;;;;;;22.07;38.43;101774.72;4908272;29;20040;-77
2022/05/05 11:08:35;;;;;;;5.20;2.10;;;;;;;22.61;37.34;101771.16;4906275;29;20108;-76
2022/05/05 11:24:06;;;;;;;5.43;2.60;;;;;;;22.27;36.99;101771.09;4913241;29;20039;-76
2022/05/05 11:26:55;;;;;;;6.32;2.50;;;;;;;22.19;37.16;101776.78;4914174;29;20063;-76
2022/05/05 11:29:48;;;;;;;3.67;2.33;;;;;;;22.61;37.21;101765.81;4909184;29;20083;-76
2022/05/05 11:32:34;;;;;;;4.72;2.60;;;;;;;23.25;37.05;101767.81;4912796;29;20070;-76
2022/05/05 11:35:23;;;;;;;6.25;2.75;;;;;;;24.33;36.84;101770.69;4912986;29;20096;-76
2022/05/05 11:38:09;;;;;;;4.78;2.10;;;;;;;24.10;35.50;101765.81;4908349;29;20036;-76
2022/05/05 11:41:20;;;;;;;3.47;2.10;;;;;;;23.91;35.70;101760.59;4912624;29;20028;-72
2022/05/05 11:44:15;;;;;;;6.80;2.40;;;;;;;23.77;35.81;101765.84;4913882;29;20541;-72
2022/05/05 11:47:17;;;;;;;4.43;2.25;;;;;;;23.96;35.54;101757.66;4912433;29;20031;-73
2022/05/05 11:50:13;;;;;;;6.88;2.88;;;;;;;24.09;36.14;101753.34;4911810;29;20080;-71
2022/05/05 11:52:59;;;;;;;5.85;2.38;;;;;;;23.53;35.90;101761.81;4912765;29;20035;-73
2022/05/05 11:55:45;;;;;;;4.72;2.53;;;;;;;22.70;36.72;101758.22;4913080;29;20040;-73
2022/05/05 12:01:42;;;;;;;6.95;2.58;;;;;;;23.94;35.74;101746.19;4911758;29;20751;-73
2022/05/05 12:04:28;;;;;;;5.82;2.88;;;;;;;23.34;35.80;101748.59;4910725;29;20070;-74
2022/05/05 12:07:21;;;;;;;4.22;2.65;;;;;;;23.32;36.03;101745.13;4911480;29;20032;-74
2022/05/05 12:10:08;;;;;;;5.55;2.40;;;;;;;23.82;35.56;101739.66;4912033;29;20044;-73
2022/05/05 12:12:59;;;;;;;4.32;2.70;;;;;;;24.51;35.73;101753.56;4925418;29;20024;-74
2022/05/05 12:15:51;;;;;;;3.95;2.60;;;;;;;23.52;35.75;101744.06;4913591;29;20389;-73
2022/05/05 12:18:53;;;;;;;4.55;2.75;;;;;;;23.90;36.16;101741.94;4908826;29;20028;-74
2022/05/05 12:21:54;;;;;;;8.40;3.33;;;;;;;24.05;36.59;101747.31;4911499;29;20071;-74
2022/05/05 12:24:48;;;;;;;4.68;2.50;;;;;;;;;;4910790;29;20036;-74
2022/05/05 12:27:36;;;;;;;3.50;2.53;;;;;;;23.65;37.22;101741.56;4911029;29;20056;-72
2022/05/05 12:30:35;;;;;;;4.43;2.90;;;;;;;23.60;37.32;101738.28;4923414;29;20035;-73
2022/05/05 12:33:35;;;;;;;3.67;2.58;;;;;;;23.71;37.34;101731.38;4912772;29;20113;-74
2022/05/05 12:36:28;;;;;;;7.82;3.08;;;;;;;23.63;37.37;101738.13;4911371;29;20036;-73
2022/05/05 12:39:13;;;;;;;6.57;2.60;;;;;;;23.71;37.51;101731.38;4909499;29;20607;-74
2022/05/05 12:42:02;;;;;;;5.93;2.67;;;;;;;23.39;37.20;101726.94;4913665;29;20342;-74
2022/05/05 12:44:52;;;;;;;5.07;3.40;;;;;;;23.62;37.24;101721.19;4912944;29;20036;-74
2022/05/05 12:47:43;;;;;;;4.50;2.65;;;;;;;23.97;37.41;101733.50;4908097;29;21431;-75
2022/05/05 12:50:35;;;;;;;4.32;2.70;;;;;;;23.84;37.57;101732.44;4910370;29;20115;-75
2022/05/05 12:59:39;;;;;;;7.88;2.60;;;;;;;23.82;37.98;101728.97;4907446;29;20526;-74
2022/05/05 13:02:25;;;;;;;6.30;2.50;;;;;;;23.73;37.17;101718.78;4912305;29;20024;-72
2022/05/05 13:05:12;;;;;;;8.07;2.92;;;;;;;23.51;38.16;101712.03;4913052;29;20032;-72
2022/05/05 13:07:57;;;;;;;4.53;2.60;;;;;;;24.41;37.05;101717.53;4905508;29;20448;-72
2022/05/05 13:10:43;;;;;;;4.68;2.80;;;;;;;24.03;37.78;101716.22;4911848;29;20063;-72
2022/05/05 13:13:29;;;;;;;4.32;2.85;;;;;;;24.41;37.38;101721.09;4913337;29;20040;-71
2022/05/05 13:16:15;;;;;;;4.45;2.40;;;;;;;23.91;37.27;101717.75;4911373;29;20634;-72
2022/05/05 13:19:02;;;;;;;6.45;2.78;;;;;;;24.39;36.87;101727.50;4907348;29;20028;-72
2022/05/05 13:21:48;;;;;;;5.32;3.15;;;;;;;23.91;37.92;101716.88;4911306;29;20024;-71
2022/05/05 13:24:34;;;;;;;5.55;2.90;;;;;;;24.06;37.37;101716.91;4910625;29;20130;-73
2022/05/05 13:27:20;;;;;;;6.55;2.67;;;;;;;23.60;38.60;101714.19;4911205;29;20035;-72
2022/05/05 13:30:06;;;;;;;6.85;2.75;;;;;;;24.42;37.56;101720.13;4898575;29;20407;-72